sensor_id;sensor_type;location;lat;lon;timestamp;temperature;humidity
22321;DHT22;11328;53.928;18.522;2023-02-15T00:00:06;5.30;99.90
22321;DHT22;11328;53.928;18.522;2023-02-15T00:02:37;5.30;99.90
22321;DHT22;11328;53.928;18.522;2023-02-15T00:05:06;5.30;99.90
22321;DHT22;11328;53.928;18.522;2023-02-15T00:07:34;5.30;99.90
22321;DHT22;11328;53.928;18.522;2023-02-15T00:10:01;5.40;99.90
22321;DHT22;11328;53.928;18.522;2023-02-15T00:12:28;5.40;99.90
22321;DHT22;11328;53.928;18.522;2023-02-15T00:14:55;5.40;99.90
22321;DHT22;11328;53.928;18.522;2023-02-15T00:17:22;5.50;99.90
22321;DHT22;11328;53.928;18.522;2023-02-15T00:19:49;5.50;99.90
22321;DHT22;11328;53.928;18.522;2023-02-15T00:22:16;5.60;99.90
22321;DHT22;11328;53.928;18.522;2023-02-15T00:24:43;5.60;99.90
22321;DHT22;11328;53.928;18.522;2023-02-15T00:27:10;5.70;99.90
22321;DHT22;11328;53.928;18.522;2023-02-15T00:29:37;5.70;99.90
22321;DHT22;11328;53.928;18.522;2023-02-15T00:32:05;5.70;99.90
22321;DHT22;11328;53.928;18.522;2023-02-15T00:34:32;5.70;99.90
22321;DHT22;11328;53.928;18.522;2023-02-15T00:36:59;5.80;99.90
22321;DHT22;11328;53.928;18.522;2023-02-15T00:39:26;5.80;99.90
22321;DHT22;11328;53.928;18.522;2023-02-15T00:41:55;5.80;99.90
22321;DHT22;11328;53.928;18.522;2023-02-15T00:44:22;5.80;99.90
22321;DHT22;11328;53.928;18.522;2023-02-15T00:46:49;5.80;99.90
22321;DHT22;11328;53.928;18.522;2023-02-15T00:49:16;5.80;99.90
22321;DHT22;11328;53.928;18.522;2023-02-15T00:51:43;5.80;99.90
22321;DHT22;11328;53.928;18.522;2023-02-15T00:54:10;5.70;99.90
22321;DHT22;11328;53.928;18.522;2023-02-15T00:56:37;5.70;99.90
22321;DHT22;11328;53.928;18.522;2023-02-15T00:59:04;5.70;99.90
22321;DHT22;11328;53.928;18.522;2023-02-15T01:01:32;5.70;99.90
22321;DHT22;11328;53.928;18.522;2023-02-15T01:03:59;5.80;99.90
22321;DHT22;11328;53.928;18.522;2023-02-15T01:06:26;5.80;99.90
22321;DHT22;11328;53.928;18.522;2023-02-15T01:08:53;5.80;99.90
22321;DHT22;11328;53.928;18.522;2023-02-15T01:11:21;5.80;99.90
22321;DHT22;11328;53.928;18.522;2023-02-15T01:13:50;5.80;99.90
22321;DHT22;11328;53.928;18.522;2023-02-15T01:16:20;5.80;99.90
22321;DHT22;11328;53.928;18.522;2023-02-15T01:18:49;5.70;99.90
22321;DHT22;11328;53.928;18.522;2023-02-15T01:21:19;5.70;99.90
22321;DHT22;11328;53.928;18.522;2023-02-15T01:23:47;5.70;99.90
22321;DHT22;11328;53.928;18.522;2023-02-15T01:26:16;5.70;99.90
22321;DHT22;11328;53.928;18.522;2023-02-15T01:28:44;5.70;99.90
22321;DHT22;11328;53.928;18.522;2023-02-15T01:31:14;5.70;99.90
22321;DHT22;11328;53.928;18.522;2023-02-15T01:33:43;5.70;99.90
22321;DHT22;11328;53.928;18.522;2023-02-15T01:36:11;5.70;99.90
22321;DHT22;11328;53.928;18.522;2023-02-15T01:38:38;5.60;99.90
22321;DHT22;11328;53.928;18.522;2023-02-15T01:41:09;5.70;99.90
22321;DHT22;11328;53.928;18.522;2023-02-15T01:43:56;5.70;99.90
22321;DHT22;11328;53.928;18.522;2023-02-15T01:46:38;5.60;99.90
22321;DHT22;11328;53.928;18.522;2023-02-15T01:49:18;5.60;99.90
22321;DHT22;11328;53.928;18.522;2023-02-15T01:51:48;5.60;99.90
22321;DHT22;11328;53.928;18.522;2023-02-15T01:54:22;5.60;99.90
22321;DHT22;11328;53.928;18.522;2023-02-15T01:56:58;5.60;99.90
22321;DHT22;11328;53.928;18.522;2023-02-15T01:59:28;5.50;99.90
22321;DHT22;11328;53.928;18.522;2023-02-15T02:01:59;5.50;99.90
22321;DHT22;11328;53.928;18.522;2023-02-15T02:04:53;5.50;99.90
22321;DHT22;11328;53.928;18.522;2023-02-15T02:07:27;5.50;99.90
22321;DHT22;11328;53.928;18.522;2023-02-15T02:09:56;5.50;99.90
22321;DHT22;11328;53.928;18.522;2023-02-15T02:12:23;5.50;99.90
22321;DHT22;11328;53.928;18.522;2023-02-15T02:14:54;5.50;99.90
22321;DHT22;11328;53.928;18.522;2023-02-15T02:35:19;5.50;99.90
22321;DHT22;11328;53.928;18.522;2023-02-15T02:38:11;5.50;99.90
22321;DHT22;11328;53.928;18.522;2023-02-15T02:40:50;5.40;99.90
22321;DHT22;11328;53.928;18.522;2023-02-15T02:44:04;5.40;99.90
22321;DHT22;11328;53.928;18.522;2023-02-15T02:46:58;5.40;99.90
22321;DHT22;11328;53.928;18.522;2023-02-15T02:49:35;5.40;99.90
22321;DHT22;11328;53.928;18.522;2023-02-15T02:52:53;5.40;99.90
22321;DHT22;11328;53.928;18.522;2023-02-15T03:00:36;5.30;99.90
22321;DHT22;11328;53.928;18.522;2023-02-15T03:03:36;5.30;99.90
22321;DHT22;11328;53.928;18.522;2023-02-15T03:06:50;5.30;99.90
22321;DHT22;11328;53.928;18.522;2023-02-15T03:09:36;5.30;99.90
22321;DHT22;11328;53.928;18.522;2023-02-15T03:12:19;5.30;99.90
22321;DHT22;11328;53.928;18.522;2023-02-15T03:14:53;5.30;99.90
22321;DHT22;11328;53.928;18.522;2023-02-15T03:17:30;5.30;99.90
22321;DHT22;11328;53.928;18.522;2023-02-15T03:20:03;5.30;99.90
22321;DHT22;11328;53.928;18.522;2023-02-15T03:22:38;5.30;99.90
22321;DHT22;11328;53.928;18.522;2023-02-15T03:25:34;5.30;99.90
22321;DHT22;11328;53.928;18.522;2023-02-15T03:28:10;5.40;99.90
22321;DHT22;11328;53.928;18.522;2023-02-15T03:30:51;5.30;99.90
22321;DHT22;11328;53.928;18.522;2023-02-15T03:33:20;5.30;99.90
22321;DHT22;11328;53.928;18.522;2023-02-15T03:35:55;5.30;99.90
22321;DHT22;11328;53.928;18.522;2023-02-15T03:41:34;5.40;99.90
22321;DHT22;11328;53.928;18.522;2023-02-15T03:44:14;5.40;99.90
22321;DHT22;11328;53.928;18.522;2023-02-15T03:46:52;5.40;99.90
22321;DHT22;11328;53.928;18.522;2023-02-15T03:52:53;5.40;99.90
22321;DHT22;11328;53.928;18.522;2023-02-15T03:55:22;5.30;99.90
22321;DHT22;11328;53.928;18.522;2023-02-15T03:57:50;5.30;99.90
22321;DHT22;11328;53.928;18.522;2023-02-15T04:00:37;5.40;99.90
22321;DHT22;11328;53.928;18.522;2023-02-15T04:03:39;5.30;99.90
22321;DHT22;11328;53.928;18.522;2023-02-15T04:06:08;5.30;99.90
22321;DHT22;11328;53.928;18.522;2023-02-15T04:08:35;5.30;99.90
22321;DHT22;11328;53.928;18.522;2023-02-15T04:11:21;5.30;99.90
22321;DHT22;11328;53.928;18.522;2023-02-15T04:13:48;5.20;99.90
22321;DHT22;11328;53.928;18.522;2023-02-15T04:16:24;5.20;99.90
22321;DHT22;11328;53.928;18.522;2023-02-15T04:18:52;5.20;99.90
22321;DHT22;11328;53.928;18.522;2023-02-15T04:21:37;5.20;99.90
22321;DHT22;11328;53.928;18.522;2023-02-15T04:24:23;5.20;99.90
22321;DHT22;11328;53.928;18.522;2023-02-15T04:27:09;5.10;99.90
22321;DHT22;11328;53.928;18.522;2023-02-15T04:29:36;5.10;99.90
22321;DHT22;11328;53.928;18.522;2023-02-15T04:32:03;5.00;99.90
22321;DHT22;11328;53.928;18.522;2023-02-15T04:34:30;5.00;99.90
22321;DHT22;11328;53.928;18.522;2023-02-15T04:36:57;5.10;99.90
22321;DHT22;11328;53.928;18.522;2023-02-15T04:39:25;5.10;99.90
22321;DHT22;11328;53.928;18.522;2023-02-15T04:41:52;5.00;99.90
22321;DHT22;11328;53.928;18.522;2023-02-15T04:44:19;5.10;99.90
22321;DHT22;11328;53.928;18.522;2023-02-15T04:46:46;5.10;99.90
22321;DHT22;11328;53.928;18.522;2023-02-15T04:49:14;5.10;99.90
22321;DHT22;11328;53.928;18.522;2023-02-15T04:51:41;5.10;99.90
22321;DHT22;11328;53.928;18.522;2023-02-15T04:54:08;5.10;99.90
22321;DHT22;11328;53.928;18.522;2023-02-15T04:56:35;5.10;99.90
22321;DHT22;11328;53.928;18.522;2023-02-15T04:59:05;5.20;99.90
22321;DHT22;11328;53.928;18.522;2023-02-15T05:01:33;5.20;99.90
22321;DHT22;11328;53.928;18.522;2023-02-15T05:04:00;5.20;99.90
22321;DHT22;11328;53.928;18.522;2023-02-15T05:06:28;5.20;99.90
22321;DHT22;11328;53.928;18.522;2023-02-15T05:08:56;5.20;99.90
22321;DHT22;11328;53.928;18.522;2023-02-15T05:11:26;5.10;99.90
22321;DHT22;11328;53.928;18.522;2023-02-15T05:13:53;5.10;99.90
22321;DHT22;11328;53.928;18.522;2023-02-15T05:16:20;5.10;99.90
22321;DHT22;11328;53.928;18.522;2023-02-15T05:18:48;5.10;99.90
22321;DHT22;11328;53.928;18.522;2023-02-15T05:21:15;5.10;99.90
22321;DHT22;11328;53.928;18.522;2023-02-15T05:23:43;5.20;99.90
22321;DHT22;11328;53.928;18.522;2023-02-15T05:26:17;5.20;99.90
22321;DHT22;11328;53.928;18.522;2023-02-15T05:29:05;5.10;99.90
22321;DHT22;11328;53.928;18.522;2023-02-15T05:31:33;5.10;99.90
22321;DHT22;11328;53.928;18.522;2023-02-15T05:34:00;5.20;99.90
22321;DHT22;11328;53.928;18.522;2023-02-15T05:36:28;5.20;99.90
22321;DHT22;11328;53.928;18.522;2023-02-15T05:38:55;5.30;99.90
22321;DHT22;11328;53.928;18.522;2023-02-15T05:41:22;5.20;99.90
22321;DHT22;11328;53.928;18.522;2023-02-15T05:43:49;5.20;99.90
22321;DHT22;11328;53.928;18.522;2023-02-15T05:46:16;5.20;99.90
22321;DHT22;11328;53.928;18.522;2023-02-15T05:48:43;5.30;99.90
22321;DHT22;11328;53.928;18.522;2023-02-15T05:51:12;5.30;99.90
22321;DHT22;11328;53.928;18.522;2023-02-15T05:53:41;5.30;99.90
22321;DHT22;11328;53.928;18.522;2023-02-15T05:56:09;5.30;99.90
22321;DHT22;11328;53.928;18.522;2023-02-15T05:58:39;5.30;99.90
22321;DHT22;11328;53.928;18.522;2023-02-15T06:01:13;5.40;99.90
22321;DHT22;11328;53.928;18.522;2023-02-15T06:03:42;5.40;99.90
22321;DHT22;11328;53.928;18.522;2023-02-15T06:06:10;5.40;99.90
22321;DHT22;11328;53.928;18.522;2023-02-15T06:08:37;5.40;99.90
22321;DHT22;11328;53.928;18.522;2023-02-15T06:11:05;5.30;99.90
22321;DHT22;11328;53.928;18.522;2023-02-15T06:13:34;5.30;99.90
22321;DHT22;11328;53.928;18.522;2023-02-15T06:16:05;5.40;99.90
22321;DHT22;11328;53.928;18.522;2023-02-15T06:18:33;5.40;99.90
22321;DHT22;11328;53.928;18.522;2023-02-15T06:21:00;5.40;99.90
22321;DHT22;11328;53.928;18.522;2023-02-15T06:23:27;5.40;99.90
22321;DHT22;11328;53.928;18.522;2023-02-15T06:25:55;5.40;99.90
22321;DHT22;11328;53.928;18.522;2023-02-15T06:28:22;5.40;99.90
22321;DHT22;11328;53.928;18.522;2023-02-15T06:30:49;5.40;99.90
22321;DHT22;11328;53.928;18.522;2023-02-15T06:33:16;5.40;99.90
22321;DHT22;11328;53.928;18.522;2023-02-15T06:35:44;5.40;99.90
22321;DHT22;11328;53.928;18.522;2023-02-15T06:38:13;5.40;99.90
22321;DHT22;11328;53.928;18.522;2023-02-15T06:40:40;5.40;99.90
22321;DHT22;11328;53.928;18.522;2023-02-15T06:43:07;5.40;99.90
22321;DHT22;11328;53.928;18.522;2023-02-15T06:45:34;5.40;99.90
22321;DHT22;11328;53.928;18.522;2023-02-15T06:48:01;5.40;99.90
22321;DHT22;11328;53.928;18.522;2023-02-15T06:50:28;5.30;99.90
22321;DHT22;11328;53.928;18.522;2023-02-15T06:52:56;5.30;99.90
22321;DHT22;11328;53.928;18.522;2023-02-15T06:55:25;5.30;99.90
22321;DHT22;11328;53.928;18.522;2023-02-15T06:57:53;5.30;99.90
22321;DHT22;11328;53.928;18.522;2023-02-15T07:00:20;5.30;99.90
22321;DHT22;11328;53.928;18.522;2023-02-15T07:02:57;5.30;99.90
22321;DHT22;11328;53.928;18.522;2023-02-15T07:05:26;5.30;99.90
22321;DHT22;11328;53.928;18.522;2023-02-15T07:07:58;5.30;99.90
22321;DHT22;11328;53.928;18.522;2023-02-15T07:10:27;5.30;99.90
22321;DHT22;11328;53.928;18.522;2023-02-15T07:12:54;5.40;99.90
22321;DHT22;11328;53.928;18.522;2023-02-15T07:15:22;5.40;99.90
22321;DHT22;11328;53.928;18.522;2023-02-15T07:17:49;5.30;99.90
22321;DHT22;11328;53.928;18.522;2023-02-15T07:20:20;5.30;99.90
22321;DHT22;11328;53.928;18.522;2023-02-15T07:22:49;5.30;99.90
22321;DHT22;11328;53.928;18.522;2023-02-15T07:25:17;5.30;99.90
22321;DHT22;11328;53.928;18.522;2023-02-15T07:27:45;5.30;99.90
22321;DHT22;11328;53.928;18.522;2023-02-15T07:30:16;5.40;99.90
22321;DHT22;11328;53.928;18.522;2023-02-15T07:32:43;5.40;99.90
22321;DHT22;11328;53.928;18.522;2023-02-15T07:35:32;5.40;99.90
22321;DHT22;11328;53.928;18.522;2023-02-15T07:38:00;5.30;99.90
22321;DHT22;11328;53.928;18.522;2023-02-15T07:40:27;5.20;99.90
22321;DHT22;11328;53.928;18.522;2023-02-15T07:42:57;5.20;99.90
22321;DHT22;11328;53.928;18.522;2023-02-15T07:45:25;5.30;99.90
22321;DHT22;11328;53.928;18.522;2023-02-15T07:47:53;5.20;99.90
22321;DHT22;11328;53.928;18.522;2023-02-15T07:50:20;5.10;99.90
22321;DHT22;11328;53.928;18.522;2023-02-15T07:52:48;5.10;99.90
22321;DHT22;11328;53.928;18.522;2023-02-15T07:55:15;5.10;99.90
22321;DHT22;11328;53.928;18.522;2023-02-15T07:57:43;5.00;99.90
22321;DHT22;11328;53.928;18.522;2023-02-15T08:00:13;5.00;99.90
22321;DHT22;11328;53.928;18.522;2023-02-15T08:02:42;5.00;99.90
22321;DHT22;11328;53.928;18.522;2023-02-15T08:05:09;5.00;99.90
22321;DHT22;11328;53.928;18.522;2023-02-15T08:07:36;5.00;99.90
22321;DHT22;11328;53.928;18.522;2023-02-15T08:10:03;4.90;99.90
22321;DHT22;11328;53.928;18.522;2023-02-15T08:12:31;4.80;99.90
22321;DHT22;11328;53.928;18.522;2023-02-15T08:14:58;4.80;99.90
22321;DHT22;11328;53.928;18.522;2023-02-15T08:17:25;4.70;99.90
22321;DHT22;11328;53.928;18.522;2023-02-15T08:19:52;4.70;99.90
22321;DHT22;11328;53.928;18.522;2023-02-15T08:22:19;4.80;99.90
22321;DHT22;11328;53.928;18.522;2023-02-15T08:24:47;4.80;99.90
22321;DHT22;11328;53.928;18.522;2023-02-15T08:27:14;4.80;99.90
22321;DHT22;11328;53.928;18.522;2023-02-15T08:29:41;4.70;99.90
22321;DHT22;11328;53.928;18.522;2023-02-15T08:32:10;4.70;99.90
22321;DHT22;11328;53.928;18.522;2023-02-15T08:34:40;4.70;99.90
22321;DHT22;11328;53.928;18.522;2023-02-15T08:37:08;4.70;99.90
22321;DHT22;11328;53.928;18.522;2023-02-15T08:39:36;4.70;99.90
22321;DHT22;11328;53.928;18.522;2023-02-15T08:42:03;4.70;99.90
22321;DHT22;11328;53.928;18.522;2023-02-15T08:44:30;4.70;99.90
22321;DHT22;11328;53.928;18.522;2023-02-15T08:46:57;4.80;99.90
22321;DHT22;11328;53.928;18.522;2023-02-15T08:49:30;4.80;99.90
22321;DHT22;11328;53.928;18.522;2023-02-15T08:51:58;4.70;99.90
22321;DHT22;11328;53.928;18.522;2023-02-15T08:54:26;4.90;99.90
22321;DHT22;11328;53.928;18.522;2023-02-15T08:56:53;4.80;99.90
22321;DHT22;11328;53.928;18.522;2023-02-15T08:59:21;4.90;99.90
22321;DHT22;11328;53.928;18.522;2023-02-15T09:01:51;5.00;99.90
22321;DHT22;11328;53.928;18.522;2023-02-15T09:04:19;5.00;99.90
22321;DHT22;11328;53.928;18.522;2023-02-15T09:06:48;5.00;99.90
22321;DHT22;11328;53.928;18.522;2023-02-15T09:09:18;5.00;99.90
22321;DHT22;11328;53.928;18.522;2023-02-15T09:11:48;5.00;99.90
22321;DHT22;11328;53.928;18.522;2023-02-15T09:14:24;5.00;99.90
22321;DHT22;11328;53.928;18.522;2023-02-15T09:16:53;5.00;99.90
22321;DHT22;11328;53.928;18.522;2023-02-15T09:19:22;5.10;99.90
22321;DHT22;11328;53.928;18.522;2023-02-15T09:21:50;5.10;99.90
22321;DHT22;11328;53.928;18.522;2023-02-15T09:24:18;5.10;99.90
22321;DHT22;11328;53.928;18.522;2023-02-15T09:26:47;5.10;99.90
22321;DHT22;11328;53.928;18.522;2023-02-15T09:29:16;5.10;99.90
22321;DHT22;11328;53.928;18.522;2023-02-15T09:31:46;5.20;99.90
22321;DHT22;11328;53.928;18.522;2023-02-15T09:34:17;5.20;99.90
22321;DHT22;11328;53.928;18.522;2023-02-15T09:36:47;5.30;99.90
22321;DHT22;11328;53.928;18.522;2023-02-15T09:39:23;5.40;99.90
22321;DHT22;11328;53.928;18.522;2023-02-15T09:42:20;5.40;99.90
22321;DHT22;11328;53.928;18.522;2023-02-15T09:50:32;5.70;99.90
22321;DHT22;11328;53.928;18.522;2023-02-15T09:56:15;5.70;99.90
22321;DHT22;11328;53.928;18.522;2023-02-15T09:59:03;5.80;99.90
22321;DHT22;11328;53.928;18.522;2023-02-15T10:04:42;5.90;99.90
22321;DHT22;11328;53.928;18.522;2023-02-15T10:10:14;6.00;99.90
22321;DHT22;11328;53.928;18.522;2023-02-15T10:13:10;6.10;99.90
22321;DHT22;11328;53.928;18.522;2023-02-15T10:16:06;6.10;99.90
22321;DHT22;11328;53.928;18.522;2023-02-15T10:20:02;6.20;99.90
22321;DHT22;11328;53.928;18.522;2023-02-15T10:27:51;6.40;99.90
22321;DHT22;11328;53.928;18.522;2023-02-15T10:30:26;6.40;99.90
22321;DHT22;11328;53.928;18.522;2023-02-15T10:33:04;6.40;99.90
22321;DHT22;11328;53.928;18.522;2023-02-15T10:47:20;6.20;99.90
22321;DHT22;11328;53.928;18.522;2023-02-15T10:56:25;6.00;99.90
22321;DHT22;11328;53.928;18.522;2023-02-15T10:59:22;5.90;99.90
22321;DHT22;11328;53.928;18.522;2023-02-15T11:02:26;5.90;99.90
22321;DHT22;11328;53.928;18.522;2023-02-15T11:08:00;5.90;99.90
22321;DHT22;11328;53.928;18.522;2023-02-15T11:10:43;6.00;99.90
22321;DHT22;11328;53.928;18.522;2023-02-15T11:13:17;6.10;99.90
22321;DHT22;11328;53.928;18.522;2023-02-15T11:15:57;6.10;99.90
22321;DHT22;11328;53.928;18.522;2023-02-15T11:18:50;6.20;99.90
22321;DHT22;11328;53.928;18.522;2023-02-15T11:21:37;6.10;99.90
22321;DHT22;11328;53.928;18.522;2023-02-15T11:24:17;6.20;99.90
22321;DHT22;11328;53.928;18.522;2023-02-15T11:29:41;6.10;99.90
22321;DHT22;11328;53.928;18.522;2023-02-15T11:32:34;6.00;99.90
22321;DHT22;11328;53.928;18.522;2023-02-15T11:40:55;6.00;99.90
22321;DHT22;11328;53.928;18.522;2023-02-15T11:46:33;6.00;99.90
22321;DHT22;11328;53.928;18.522;2023-02-15T11:49:00;5.90;99.90
22321;DHT22;11328;53.928;18.522;2023-02-15T11:51:29;6.00;99.90
22321;DHT22;11328;53.928;18.522;2023-02-15T11:53:56;6.00;99.90
22321;DHT22;11328;53.928;18.522;2023-02-15T11:56:25;6.00;99.90
22321;DHT22;11328;53.928;18.522;2023-02-15T11:58:58;6.10;99.90
22321;DHT22;11328;53.928;18.522;2023-02-15T12:01:32;6.00;99.90
22321;DHT22;11328;53.928;18.522;2023-02-15T12:04:25;6.10;99.90
22321;DHT22;11328;53.928;18.522;2023-02-15T12:07:00;6.30;99.90
22321;DHT22;11328;53.928;18.522;2023-02-15T12:10:00;6.50;99.90
22321;DHT22;11328;53.928;18.522;2023-02-15T12:12:35;6.60;99.90
22321;DHT22;11328;53.928;18.522;2023-02-15T12:15:08;6.70;99.90
22321;DHT22;11328;53.928;18.522;2023-02-15T12:17:41;6.80;99.90
22321;DHT22;11328;53.928;18.522;2023-02-15T12:22:54;6.90;99.90
22321;DHT22;11328;53.928;18.522;2023-02-15T12:25:53;6.80;99.90
22321;DHT22;11328;53.928;18.522;2023-02-15T12:31:36;6.80;99.90
22321;DHT22;11328;53.928;18.522;2023-02-15T12:34:20;6.90;99.90
22321;DHT22;11328;53.928;18.522;2023-02-15T12:36:56;6.90;99.90
22321;DHT22;11328;53.928;18.522;2023-02-15T12:39:30;6.80;99.90
22321;DHT22;11328;53.928;18.522;2023-02-15T12:42:05;6.90;99.90
22321;DHT22;11328;53.928;18.522;2023-02-15T12:45:01;6.90;99.90
22321;DHT22;11328;53.928;18.522;2023-02-15T12:47:31;6.90;99.90
22321;DHT22;11328;53.928;18.522;2023-02-15T12:50:13;6.90;99.90
22321;DHT22;11328;53.928;18.522;2023-02-15T12:53:02;7.00;99.90
22321;DHT22;11328;53.928;18.522;2023-02-15T12:58:41;6.90;99.90
22321;DHT22;11328;53.928;18.522;2023-02-15T13:01:16;7.00;99.90
22321;DHT22;11328;53.928;18.522;2023-02-15T13:06:53;7.00;99.90
22321;DHT22;11328;53.928;18.522;2023-02-15T13:12:22;7.00;99.90
22321;DHT22;11328;53.928;18.522;2023-02-15T13:14:54;7.00;99.90
22321;DHT22;11328;53.928;18.522;2023-02-15T13:17:28;7.10;99.90
22321;DHT22;11328;53.928;18.522;2023-02-15T13:20:26;7.10;99.90
22321;DHT22;11328;53.928;18.522;2023-02-15T13:23:00;7.10;99.90
22321;DHT22;11328;53.928;18.522;2023-02-15T13:25:44;7.10;99.90
22321;DHT22;11328;53.928;18.522;2023-02-15T13:28:18;7.10;99.90
22321;DHT22;11328;53.928;18.522;2023-02-15T13:30:49;7.10;99.90
22321;DHT22;11328;53.928;18.522;2023-02-15T13:33:36;7.10;99.90
22321;DHT22;11328;53.928;18.522;2023-02-15T13:39:26;7.20;99.90
22321;DHT22;11328;53.928;18.522;2023-02-15T13:57:25;7.20;99.90
22321;DHT22;11328;53.928;18.522;2023-02-15T14:11:15;7.00;99.90
22321;DHT22;11328;53.928;18.522;2023-02-15T14:14:11;7.00;99.90
22321;DHT22;11328;53.928;18.522;2023-02-15T14:17:13;7.00;99.90
22321;DHT22;11328;53.928;18.522;2023-02-15T14:23:23;7.00;99.90
22321;DHT22;11328;53.928;18.522;2023-02-15T14:31:56;7.00;99.90
22321;DHT22;11328;53.928;18.522;2023-02-15T14:34:52;6.90;99.90
22321;DHT22;11328;53.928;18.522;2023-02-15T14:44:10;6.90;99.90
22321;DHT22;11328;53.928;18.522;2023-02-15T14:49:27;6.90;99.90
22321;DHT22;11328;53.928;18.522;2023-02-15T14:52:08;6.80;99.90
22321;DHT22;11328;53.928;18.522;2023-02-15T15:02:29;6.50;99.90
22321;DHT22;11328;53.928;18.522;2023-02-15T15:05:34;6.40;99.90
22321;DHT22;11328;53.928;18.522;2023-02-15T15:08:26;6.40;99.90
22321;DHT22;11328;53.928;18.522;2023-02-15T15:14:57;6.40;99.90
22321;DHT22;11328;53.928;18.522;2023-02-15T15:17:05;6.30;99.90
22321;DHT22;11328;53.928;18.522;2023-02-15T15:22:23;6.20;99.90
22321;DHT22;11328;53.928;18.522;2023-02-15T15:27:48;6.20;99.90
22321;DHT22;11328;53.928;18.522;2023-02-15T15:37:01;6.10;99.90
22321;DHT22;11328;53.928;18.522;2023-02-15T15:51:02;5.80;99.90
22321;DHT22;11328;53.928;18.522;2023-02-15T15:54:19;5.80;99.90
22321;DHT22;11328;53.928;18.522;2023-02-15T15:57:05;5.80;99.90
22321;DHT22;11328;53.928;18.522;2023-02-15T15:59:50;5.80;99.90
22321;DHT22;11328;53.928;18.522;2023-02-15T16:02:18;5.80;99.90
22321;DHT22;11328;53.928;18.522;2023-02-15T16:04:50;5.70;99.90
22321;DHT22;11328;53.928;18.522;2023-02-15T16:07:21;5.80;99.90
22321;DHT22;11328;53.928;18.522;2023-02-15T16:10:02;5.80;99.90
22321;DHT22;11328;53.928;18.522;2023-02-15T16:12:37;5.70;99.90
22321;DHT22;11328;53.928;18.522;2023-02-15T16:15:36;5.70;99.90
22321;DHT22;11328;53.928;18.522;2023-02-15T16:18:17;5.70;99.90
22321;DHT22;11328;53.928;18.522;2023-02-15T16:20:51;5.70;99.90
22321;DHT22;11328;53.928;18.522;2023-02-15T16:29:18;5.60;99.90
22321;DHT22;11328;53.928;18.522;2023-02-15T16:34:57;5.50;99.90
22321;DHT22;11328;53.928;18.522;2023-02-15T16:37:27;5.50;99.90
22321;DHT22;11328;53.928;18.522;2023-02-15T16:39:59;5.50;99.90
22321;DHT22;11328;53.928;18.522;2023-02-15T16:42:27;5.40;99.90
22321;DHT22;11328;53.928;18.522;2023-02-15T16:45:04;5.30;99.90
22321;DHT22;11328;53.928;18.522;2023-02-15T16:47:41;5.30;99.90
22321;DHT22;11328;53.928;18.522;2023-02-15T16:50:34;5.30;99.90
22321;DHT22;11328;53.928;18.522;2023-02-15T16:53:13;5.30;99.90
22321;DHT22;11328;53.928;18.522;2023-02-15T16:55:52;5.30;99.90
22321;DHT22;11328;53.928;18.522;2023-02-15T16:58:44;5.30;99.90
22321;DHT22;11328;53.928;18.522;2023-02-15T17:01:15;5.10;99.90
22321;DHT22;11328;53.928;18.522;2023-02-15T17:03:48;5.10;99.90
22321;DHT22;11328;53.928;18.522;2023-02-15T17:06:21;5.10;99.90
22321;DHT22;11328;53.928;18.522;2023-02-15T17:09:13;5.10;99.90
22321;DHT22;11328;53.928;18.522;2023-02-15T17:11:46;5.20;99.90
22321;DHT22;11328;53.928;18.522;2023-02-15T17:14:21;5.10;99.90
22321;DHT22;11328;53.928;18.522;2023-02-15T17:16:58;5.10;99.90
22321;DHT22;11328;53.928;18.522;2023-02-15T17:19:40;5.20;99.90
22321;DHT22;11328;53.928;18.522;2023-02-15T17:22:20;5.20;99.90
22321;DHT22;11328;53.928;18.522;2023-02-15T17:24:58;5.10;99.90
22321;DHT22;11328;53.928;18.522;2023-02-15T17:27:28;5.10;99.90
22321;DHT22;11328;53.928;18.522;2023-02-15T17:30:12;5.10;99.90
22321;DHT22;11328;53.928;18.522;2023-02-15T17:33:00;5.10;99.90
22321;DHT22;11328;53.928;18.522;2023-02-15T17:35:30;5.00;99.90
22321;DHT22;11328;53.928;18.522;2023-02-15T17:38:06;4.90;99.90
22321;DHT22;11328;53.928;18.522;2023-02-15T17:40:44;5.00;99.90
22321;DHT22;11328;53.928;18.522;2023-02-15T17:43:11;5.00;99.90
22321;DHT22;11328;53.928;18.522;2023-02-15T17:45:47;5.10;99.90
22321;DHT22;11328;53.928;18.522;2023-02-15T17:51:02;5.00;99.90
22321;DHT22;11328;53.928;18.522;2023-02-15T17:53:32;4.90;99.90
22321;DHT22;11328;53.928;18.522;2023-02-15T17:55:59;5.00;99.90
22321;DHT22;11328;53.928;18.522;2023-02-15T17:58:37;4.90;99.90
22321;DHT22;11328;53.928;18.522;2023-02-15T18:01:10;4.80;99.90
22321;DHT22;11328;53.928;18.522;2023-02-15T18:04:01;4.90;99.90
22321;DHT22;11328;53.928;18.522;2023-02-15T18:06:48;4.80;99.90
22321;DHT22;11328;53.928;18.522;2023-02-15T18:09:35;4.80;99.90
22321;DHT22;11328;53.928;18.522;2023-02-15T18:12:24;4.80;99.90
22321;DHT22;11328;53.928;18.522;2023-02-15T18:14:54;4.80;99.90
22321;DHT22;11328;53.928;18.522;2023-02-15T18:17:32;4.80;99.90
22321;DHT22;11328;53.928;18.522;2023-02-15T18:20:09;4.70;99.90
22321;DHT22;11328;53.928;18.522;2023-02-15T18:22:45;4.80;99.90
22321;DHT22;11328;53.928;18.522;2023-02-15T18:25:14;4.80;99.90
22321;DHT22;11328;53.928;18.522;2023-02-15T18:27:44;4.80;99.90
22321;DHT22;11328;53.928;18.522;2023-02-15T18:30:17;4.80;99.90
22321;DHT22;11328;53.928;18.522;2023-02-15T18:32:48;4.80;99.90
22321;DHT22;11328;53.928;18.522;2023-02-15T18:35:20;4.80;99.90
22321;DHT22;11328;53.928;18.522;2023-02-15T18:37:51;4.80;99.90
22321;DHT22;11328;53.928;18.522;2023-02-15T18:40:22;4.80;99.90
22321;DHT22;11328;53.928;18.522;2023-02-15T18:42:52;4.80;99.90
22321;DHT22;11328;53.928;18.522;2023-02-15T18:45:25;4.70;99.90
22321;DHT22;11328;53.928;18.522;2023-02-15T19:00:56;4.70;99.90
22321;DHT22;11328;53.928;18.522;2023-02-15T19:03:25;5.20;99.90
22321;DHT22;11328;53.928;18.522;2023-02-15T19:05:52;5.00;99.90
22321;DHT22;11328;53.928;18.522;2023-02-15T19:08:21;4.90;99.90
22321;DHT22;11328;53.928;18.522;2023-02-15T19:10:50;4.80;99.90
22321;DHT22;11328;53.928;18.522;2023-02-15T19:13:18;4.80;99.90
22321;DHT22;11328;53.928;18.522;2023-02-15T19:15:45;4.70;99.90
22321;DHT22;11328;53.928;18.522;2023-02-15T19:18:12;4.70;99.90
22321;DHT22;11328;53.928;18.522;2023-02-15T19:20:41;4.70;99.90
22321;DHT22;11328;53.928;18.522;2023-02-15T19:23:18;4.60;99.90
22321;DHT22;11328;53.928;18.522;2023-02-15T19:25:49;4.70;99.90
22321;DHT22;11328;53.928;18.522;2023-02-15T19:28:31;4.70;99.90
22321;DHT22;11328;53.928;18.522;2023-02-15T19:30:59;4.80;99.90
22321;DHT22;11328;53.928;18.522;2023-02-15T19:33:29;4.80;99.90
22321;DHT22;11328;53.928;18.522;2023-02-15T19:35:57;4.80;99.90
22321;DHT22;11328;53.928;18.522;2023-02-15T19:38:31;4.80;99.90